createdAt,value
2023-05-19T00:00:10.337Z,92270.47
2023-05-19T00:03:14.106Z,92257.16
2023-05-19T00:06:19.858Z,92245.63
2023-05-19T00:09:23.966Z,92227.41
2023-05-19T00:12:28.464Z,92239.88
2023-05-19T00:15:32.461Z,92233.59
2023-05-19T00:18:36.455Z,92236.91
2023-05-19T00:21:40.770Z,92224.19
2023-05-19T00:24:44.971Z,92224.56
2023-05-19T00:27:48.691Z,92214.09
2023-05-19T00:30:52.932Z,92192.78
2023-05-19T00:33:56.692Z,92213.28
2023-05-19T00:37:03.497Z,92212.78
2023-05-19T00:40:07.981Z,92222.19
2023-05-19T00:43:12.092Z,92219.91
2023-05-19T00:46:16.682Z,92200.16
2023-05-19T00:49:20.776Z,92204.22
2023-05-19T00:52:24.430Z,92178.56
2023-05-19T00:55:30.657Z,92178.16
2023-05-19T00:58:36.910Z,92187.84
2023-05-19T01:01:40.986Z,92191.16
2023-05-19T01:04:45.934Z,92190.31
2023-05-19T01:07:54.451Z,92206.19
2023-05-19T01:10:58.339Z,92186.72
2023-05-19T01:14:02.478Z,92197.25
2023-05-19T01:17:15.796Z,92196.47
2023-05-19T01:20:47.282Z,92210.16
2023-05-19T01:24:06.161Z,92215.22
2023-05-19T01:27:33.285Z,92214.59
2023-05-19T01:30:40.072Z,92223.97
2023-05-19T01:33:46.005Z,92217.53
2023-05-19T01:36:51.978Z,92221.94
2023-05-19T01:39:57.004Z,92222.22
2023-05-19T01:43:02.596Z,92218.94
2023-05-19T01:46:08.606Z,92222.19
2023-05-19T01:49:12.685Z,92222.03
2023-05-19T01:52:16.588Z,92210.53
2023-05-19T01:55:20.497Z,92201.25
2023-05-19T01:58:30.155Z,92200.28
2023-05-19T02:01:55.941Z,92196.50
2023-05-19T02:05:09.002Z,92191.28
2023-05-19T02:08:17.688Z,92210.66
2023-05-19T02:11:24.060Z,92193.88
2023-05-19T02:14:50.130Z,92214.94
2023-05-19T02:17:56.704Z,92207.06
2023-05-19T02:21:00.608Z,92222.97
2023-05-19T02:24:04.969Z,92226.19
2023-05-19T02:27:08.722Z,92232.00
2023-05-19T02:30:13.263Z,92247.41
2023-05-19T02:33:16.281Z,92248.00
2023-05-19T02:36:19.717Z,92269.31
2023-05-19T02:39:23.401Z,92263.28
2023-05-19T02:42:27.642Z,92264.75
2023-05-19T02:45:30.667Z,92276.44
2023-05-19T02:48:34.436Z,92293.91
2023-05-19T02:51:39.630Z,92282.31
2023-05-19T02:54:42.760Z,92298.94
2023-05-19T02:57:46.486Z,92311.91
2023-05-19T03:00:49.616Z,92316.06
2023-05-19T03:03:53.759Z,92307.31
2023-05-19T03:07:01.023Z,92304.00
2023-05-19T03:10:07.587Z,92313.63
2023-05-19T03:13:11.898Z,92317.19
2023-05-19T03:16:15.948Z,92309.94
2023-05-19T03:19:19.276Z,92307.44
2023-05-19T03:22:23.296Z,92308.19
2023-05-19T03:25:26.707Z,92311.63
2023-05-19T03:28:30.752Z,92311.69
2023-05-19T03:31:33.902Z,92309.41
2023-05-19T03:34:37.613Z,92305.03
2023-05-19T03:37:40.627Z,92313.53
2023-05-19T03:40:44.878Z,92311.28
2023-05-19T03:43:48.706Z,92302.72
2023-05-19T03:46:52.047Z,92315.75
2023-05-19T03:50:15.658Z,92298.97
2023-05-19T03:53:30.907Z,92298.22
2023-05-19T03:56:34.311Z,92297.06
2023-05-19T03:59:38.405Z,92300.13
2023-05-19T04:02:41.841Z,92290.75
2023-05-19T04:05:45.722Z,92284.47
2023-05-19T04:08:49.305Z,92276.03
2023-05-19T04:11:52.297Z,92266.38
2023-05-19T04:14:56.346Z,92255.75
2023-05-19T04:18:00.941Z,92252.63
2023-05-19T04:21:04.474Z,92251.78
2023-05-19T04:24:08.297Z,92253.00
2023-05-19T04:27:13.569Z,92252.06
2023-05-19T04:30:22.877Z,92255.38
2023-05-19T04:33:26.588Z,92241.25
2023-05-19T04:36:29.602Z,92242.34
2023-05-19T04:39:33.041Z,92226.66
2023-05-19T04:42:36.209Z,92234.97
2023-05-19T04:45:43.415Z,92233.16
2023-05-19T04:48:48.263Z,92236.91
2023-05-19T04:51:55.555Z,92238.47
2023-05-19T04:55:04.785Z,92236.44
2023-05-19T04:58:09.058Z,92239.34
2023-05-19T05:01:14.451Z,92250.38
2023-05-19T05:04:19.077Z,92235.56
2023-05-19T05:07:23.446Z,92252.59
2023-05-19T05:10:29.173Z,92257.66
2023-05-19T05:13:33.317Z,92244.13
2023-05-19T05:16:38.177Z,92250.72
2023-05-19T05:19:44.486Z,92246.41
2023-05-19T05:22:48.780Z,92231.91
2023-05-19T05:25:52.943Z,92244.91
2023-05-19T05:28:57.178Z,92257.78
2023-05-19T05:32:01.388Z,92263.06
2023-05-19T05:35:06.082Z,92240.31
2023-05-19T05:38:11.983Z,92262.72
2023-05-19T05:41:17.136Z,92282.91
2023-05-19T05:44:22.624Z,92268.09
2023-05-19T05:47:27.753Z,92278.03
2023-05-19T05:50:31.889Z,92283.75
2023-05-19T05:53:42.747Z,92279.66
2023-05-19T05:56:48.323Z,92286.72
2023-05-19T05:59:53.660Z,92296.06
2023-05-19T06:02:57.833Z,92294.78
2023-05-19T06:06:02.478Z,92292.09
2023-05-19T06:09:05.574Z,92301.22
2023-05-19T06:12:09.164Z,92302.63
2023-05-19T06:15:38.201Z,92296.19
2023-05-19T06:18:56.057Z,92302.34
2023-05-19T06:21:59.295Z,92303.59
2023-05-19T06:25:02.624Z,92300.81
2023-05-19T06:28:05.808Z,92307.56
2023-05-19T06:31:09.247Z,92318.59
2023-05-19T06:34:41.375Z,92327.22
2023-05-19T06:37:45.073Z,92308.16
2023-05-19T06:40:49.214Z,92335.59
2023-05-19T06:43:52.782Z,92313.63
2023-05-19T06:46:58.107Z,92327.03
2023-05-19T06:50:01.623Z,92309.38
2023-05-19T06:53:10.416Z,92307.84
2023-05-19T06:56:15.586Z,92312.31
2023-05-19T06:59:22.385Z,92306.09
2023-05-19T07:02:27.203Z,92330.66
2023-05-19T07:05:30.388Z,92334.91
2023-05-19T07:08:37.673Z,92330.88
2023-05-19T07:11:43.330Z,92334.16
2023-05-19T07:14:47.237Z,92330.88
2023-05-19T07:17:52.181Z,92333.72
2023-05-19T07:20:55.458Z,92332.88
2023-05-19T07:23:58.525Z,92323.31
2023-05-19T07:27:04.504Z,92339.47
2023-05-19T07:30:11.541Z,92333.28
2023-05-19T07:33:14.544Z,92347.59
2023-05-19T07:36:17.714Z,92351.28
2023-05-19T07:39:21.252Z,92342.44
2023-05-19T07:42:24.977Z,92337.72
2023-05-19T07:45:28.975Z,92345.50
2023-05-19T07:48:33.423Z,92360.81
2023-05-19T07:51:37.431Z,92354.72
2023-05-19T07:54:41.738Z,92355.66
2023-05-19T07:57:45.532Z,92353.28
2023-05-19T08:00:49.234Z,92367.66
2023-05-19T08:03:53.373Z,92367.19
2023-05-19T08:06:57.115Z,92359.63
2023-05-19T08:10:01.080Z,92362.00
2023-05-19T08:13:05.743Z,92379.66
2023-05-19T08:16:09.910Z,92377.03
2023-05-19T08:19:13.732Z,92386.72
2023-05-19T08:22:17.877Z,92391.41
2023-05-19T08:25:21.722Z,92383.63
2023-05-19T08:28:25.859Z,92399.19
2023-05-19T08:31:30.150Z,92402.03
2023-05-19T08:34:34.350Z,92408.84
2023-05-19T08:37:38.698Z,92423.69
2023-05-19T08:40:43.702Z,92427.69
2023-05-19T08:43:47.490Z,92425.56
2023-05-19T08:46:55.565Z,92424.63
2023-05-19T08:50:11.550Z,92436.72
2023-05-19T08:53:33.946Z,92449.66
2023-05-19T08:56:39.702Z,92460.03
2023-05-19T08:59:45.215Z,92469.72
2023-05-19T09:03:00.855Z,92467.84
2023-05-19T09:06:10.227Z,92472.09
2023-05-19T09:09:14.255Z,92484.50
2023-05-19T09:12:18.323Z,92477.81
2023-05-19T09:15:27.234Z,92483.81
2023-05-19T09:18:31.270Z,92504.72
2023-05-19T09:21:35.116Z,92501.16
2023-05-19T09:24:41.353Z,92513.63
2023-05-19T09:27:45.066Z,92513.41
2023-05-19T09:30:49.150Z,92509.19
2023-05-19T09:33:54.558Z,92517.94
2023-05-19T09:37:00.853Z,92519.97
2023-05-19T09:40:05.972Z,92521.13
2023-05-19T09:43:09.998Z,92532.13
2023-05-19T09:46:14.920Z,92539.41
2023-05-19T09:49:25.533Z,92559.09
2023-05-19T09:52:29.075Z,92548.75
2023-05-19T09:55:34.366Z,92565.44
2023-05-19T09:58:39.570Z,92547.75
2023-05-19T10:01:47.428Z,92545.03
2023-05-19T10:04:53.117Z,92553.28
2023-05-19T10:07:57.239Z,92567.47
2023-05-19T10:11:01.584Z,92577.72
2023-05-19T10:14:06.258Z,92599.47
2023-05-19T10:17:11.282Z,92580.53
2023-05-19T10:20:17.140Z,92603.97
2023-05-19T10:23:21.113Z,92583.00
2023-05-19T10:26:27.143Z,92603.59
2023-05-19T10:29:35.163Z,92602.34
2023-05-19T10:32:41.376Z,92611.00
2023-05-19T10:36:10.329Z,92629.06
2023-05-19T10:39:39.074Z,92632.38
2023-05-19T10:43:03.172Z,92644.31
2023-05-19T10:46:07.330Z,92635.31
2023-05-19T10:49:10.416Z,92637.34
2023-05-19T10:52:28.031Z,92630.72
2023-05-19T10:55:57.050Z,92638.13
2023-05-19T10:59:02.198Z,92622.91
2023-05-19T11:02:08.057Z,92653.25
2023-05-19T11:05:19.152Z,92659.06
2023-05-19T11:08:53.350Z,92655.41
2023-05-19T11:12:03.926Z,92651.13
2023-05-19T11:15:09.002Z,92651.91
2023-05-19T11:18:17.215Z,92665.00
2023-05-19T11:21:21.638Z,92660.56
2023-05-19T11:24:51.151Z,92674.69
2023-05-19T11:27:56.072Z,92685.38
2023-05-19T11:31:00.959Z,92678.53
2023-05-19T11:34:07.528Z,92683.97
2023-05-19T11:37:10.677Z,92688.84
2023-05-19T11:40:16.403Z,92711.03
2023-05-19T11:43:19.427Z,92699.34
2023-05-19T11:46:23.112Z,92711.91
2023-05-19T11:49:26.421Z,92700.53
2023-05-19T11:52:30.331Z,92719.53
2023-05-19T11:55:33.507Z,92709.31
2023-05-19T11:58:38.298Z,92702.38
2023-05-19T12:01:41.666Z,92709.94
2023-05-19T12:04:44.942Z,92714.41
2023-05-19T12:07:50.631Z,92721.44
2023-05-19T12:10:54.696Z,92728.97
2023-05-19T12:14:02.390Z,92740.84
2023-05-19T12:17:13.942Z,92751.50
2023-05-19T12:20:21.003Z,92730.25
2023-05-19T12:23:25.538Z,92744.75
2023-05-19T12:26:28.998Z,92754.19
2023-05-19T12:29:33.649Z,92766.47
2023-05-19T12:32:37.354Z,92754.97
2023-05-19T12:35:41.581Z,92778.50
2023-05-19T12:38:46.269Z,92791.41
2023-05-19T12:41:50.527Z,92796.28
2023-05-19T12:44:56.683Z,92804.31
2023-05-19T12:48:12.211Z,92822.50
2023-05-19T12:51:20.713Z,92834.59
2023-05-19T12:54:26.335Z,92854.25
2023-05-19T12:57:32.678Z,92848.84
2023-05-19T13:00:46.138Z,92867.84
2023-05-19T13:03:49.681Z,92866.13
2023-05-19T13:06:53.873Z,92878.94
2023-05-19T13:10:21.909Z,92879.28
2023-05-19T13:17:01.723Z,92892.06
2023-05-19T13:20:30.277Z,92886.94
2023-05-19T13:23:33.756Z,92892.66
2023-05-19T13:26:37.085Z,92891.25
2023-05-19T13:29:40.423Z,92888.38
2023-05-19T13:32:44.925Z,92900.09
2023-05-19T13:35:50.038Z,92895.88
2023-05-19T13:38:54.798Z,92910.94
2023-05-19T13:41:59.575Z,92905.78
2023-05-19T13:45:03.696Z,92909.06
2023-05-19T13:48:08.126Z,92910.00
2023-05-19T13:51:11.637Z,92906.69
2023-05-19T13:54:15.122Z,92918.19
2023-05-19T13:57:18.523Z,92925.03
2023-05-19T14:00:23.333Z,92930.22
2023-05-19T14:03:27.960Z,92919.63
2023-05-19T14:06:32.340Z,92936.28
2023-05-19T14:09:35.553Z,92942.25
2023-05-19T14:12:54.986Z,92929.31
2023-05-19T14:16:03.331Z,92936.97
2023-05-19T14:19:06.666Z,92937.75
2023-05-19T14:22:11.247Z,92941.25
2023-05-19T14:25:14.861Z,92932.59
2023-05-19T14:28:18.674Z,92937.38
2023-05-19T14:31:22.751Z,92941.50
2023-05-19T14:37:54.774Z,92961.31
2023-05-19T14:40:59.514Z,92968.56
2023-05-19T14:44:02.792Z,92966.06
2023-05-19T14:47:08.446Z,92967.22
2023-05-19T14:50:12.841Z,92971.16
2023-05-19T14:53:16.845Z,92969.56
2023-05-19T14:56:22.787Z,92984.88
2023-05-19T14:59:26.748Z,92990.63
2023-05-19T15:02:30.468Z,92993.81
2023-05-19T15:05:34.224Z,92991.69
2023-05-19T15:08:38.760Z,92994.06
2023-05-19T15:11:42.686Z,92991.66
2023-05-19T15:14:46.277Z,93000.06
2023-05-19T15:17:50.924Z,93002.44
2023-05-19T15:20:54.450Z,93003.59
2023-05-19T15:23:58.275Z,93005.38
2023-05-19T15:27:03.800Z,93016.38
2023-05-19T15:30:09.132Z,93012.75
2023-05-19T15:33:13.072Z,93010.75
2023-05-19T15:36:17.375Z,93016.19
2023-05-19T15:39:21.918Z,93010.59
2023-05-19T15:42:27.093Z,93022.44
2023-05-19T15:45:30.387Z,93011.91
2023-05-19T15:48:33.746Z,93021.97
2023-05-19T15:51:39.327Z,93025.47
2023-05-19T15:54:43.132Z,93021.47
2023-05-19T15:57:47.123Z,93032.53
2023-05-19T16:00:50.961Z,93032.00
2023-05-19T16:03:56.705Z,93041.72
2023-05-19T16:07:00.215Z,93044.75
2023-05-19T16:10:04.503Z,93051.44
2023-05-19T16:13:08.473Z,93048.94
2023-05-19T16:16:13.256Z,93056.84
2023-05-19T16:19:17.042Z,93048.56
2023-05-19T16:22:25.301Z,93060.97
2023-05-19T16:25:30.156Z,93057.88
2023-05-19T16:28:33.531Z,93055.28
2023-05-19T16:31:37.394Z,93043.50
2023-05-19T16:34:42.781Z,93045.47
2023-05-19T16:37:46.227Z,93061.69
2023-05-19T16:40:49.513Z,93065.91
2023-05-19T16:43:52.913Z,93062.94
2023-05-19T16:46:56.446Z,93074.97
2023-05-19T16:50:00.368Z,93076.41
2023-05-19T16:53:04.372Z,93076.84
2023-05-19T16:56:09.137Z,93081.84
2023-05-19T16:59:13.191Z,93074.47
2023-05-19T17:02:17.897Z,93072.88
2023-05-19T17:05:22.040Z,93070.34
2023-05-19T17:08:27.807Z,93074.53
2023-05-19T17:11:32.230Z,93070.44
2023-05-19T17:14:36.957Z,93064.75
2023-05-19T17:17:41.002Z,93062.03
2023-05-19T17:20:47.009Z,93069.28
2023-05-19T17:23:51.543Z,93059.72
2023-05-19T17:26:57.050Z,93062.47
2023-05-19T17:30:01.280Z,93067.06
2023-05-19T17:33:06.070Z,93068.13
2023-05-19T17:36:10.759Z,93065.97
2023-05-19T17:39:17.712Z,93071.66
2023-05-19T17:42:22.326Z,93073.00
2023-05-19T17:45:28.636Z,93078.56
2023-05-19T17:48:32.333Z,93077.66
2023-05-19T17:51:36.589Z,93076.13
2023-05-19T17:54:41.101Z,93069.78
2023-05-19T17:57:46.637Z,93072.03
2023-05-19T18:00:51.962Z,93073.22
2023-05-19T18:03:56.946Z,93095.06
2023-05-19T18:07:03.643Z,93102.41
2023-05-19T18:10:11.456Z,93107.81
2023-05-19T18:13:15.186Z,93110.69
2023-05-19T18:16:19.656Z,93109.53
2023-05-19T18:19:23.913Z,93110.97
2023-05-19T18:22:28.615Z,93115.59
2023-05-19T18:25:32.817Z,93114.16
2023-05-19T18:28:37.419Z,93119.06
2023-05-19T18:31:41.905Z,93125.94
2023-05-19T18:34:46.930Z,93131.81
2023-05-19T18:37:53.030Z,93136.28
2023-05-19T18:40:57.773Z,93136.03
2023-05-19T18:44:02.098Z,93132.53
2023-05-19T18:47:07.214Z,93130.84
2023-05-19T18:50:12.701Z,93135.03
2023-05-19T18:53:16.203Z,93133.59
2023-05-19T18:56:29.855Z,93134.13
2023-05-19T18:59:33.847Z,93144.22
2023-05-19T19:02:39.228Z,93146.91
2023-05-19T19:05:55.997Z,93153.19
2023-05-19T19:08:59.357Z,93160.28
2023-05-19T19:12:03.501Z,93153.72
2023-05-19T19:15:07.476Z,93155.91
2023-05-19T19:18:10.756Z,93163.16
2023-05-19T19:21:14.076Z,93158.13
2023-05-19T19:24:18.663Z,93160.47
2023-05-19T19:27:22.043Z,93167.50
2023-05-19T19:30:26.639Z,93166.53
2023-05-19T19:33:30.518Z,93175.88
2023-05-19T19:36:33.745Z,93170.69
2023-05-19T19:39:38.885Z,93165.00
2023-05-19T19:42:43.142Z,93160.00
2023-05-19T19:45:47.034Z,93146.97
2023-05-19T19:48:51.290Z,93152.03
2023-05-19T19:51:55.197Z,93158.53
2023-05-19T19:54:59.635Z,93155.41
2023-05-19T19:58:03.588Z,93156.53
2023-05-19T20:01:08.807Z,93152.34
2023-05-19T20:04:12.910Z,93158.22
2023-05-19T20:07:20.599Z,93160.94
2023-05-19T20:10:24.400Z,93158.81
2023-05-19T20:13:29.981Z,93156.75
2023-05-19T20:16:36.598Z,93154.34
2023-05-19T20:19:40.864Z,93154.25
2023-05-19T20:22:47.594Z,93158.56
2023-05-19T20:26:10.268Z,93159.34
2023-05-19T20:29:15.146Z,93164.97
2023-05-19T20:32:19.115Z,93154.81
2023-05-19T20:35:23.159Z,93166.44
2023-05-19T20:38:26.924Z,93168.78
2023-05-19T20:41:30.539Z,93170.03
2023-05-19T20:44:34.692Z,93176.06
2023-05-19T20:47:38.695Z,93177.63
2023-05-19T20:50:42.818Z,93187.97
2023-05-19T20:53:46.546Z,93172.63
2023-05-19T20:56:52.244Z,93180.09
2023-05-19T20:59:55.254Z,93183.38
2023-05-19T21:02:58.681Z,93190.59
2023-05-19T21:06:02.498Z,93188.16
2023-05-19T21:09:07.639Z,93186.94
2023-05-19T21:12:11.176Z,93195.25
2023-05-19T21:15:15.437Z,93191.97
2023-05-19T21:18:19.068Z,93200.00
2023-05-19T21:21:23.083Z,93205.97
2023-05-19T21:24:27.152Z,93209.97
2023-05-19T21:27:33.378Z,93212.94
2023-05-19T21:30:36.992Z,93214.59
2023-05-19T21:33:40.696Z,93212.06
2023-05-19T21:36:44.432Z,93216.84
2023-05-19T21:39:48.341Z,93221.19
2023-05-19T21:42:52.033Z,93228.53
2023-05-19T21:45:55.962Z,93227.03
2023-05-19T21:48:59.726Z,93233.38
2023-05-19T21:52:03.844Z,93240.88
2023-05-19T21:55:08.508Z,93244.63
2023-05-19T21:58:12.567Z,93251.16
2023-05-19T22:01:16.285Z,93253.03
2023-05-19T22:04:21.011Z,93259.59
2023-05-19T22:07:27.383Z,93258.88
2023-05-19T22:10:31.462Z,93264.44
2023-05-19T22:13:35.760Z,93270.81
2023-05-19T22:16:39.879Z,93268.34
2023-05-19T22:19:43.571Z,93268.81
2023-05-19T22:22:47.640Z,93262.78
2023-05-19T22:25:51.590Z,93276.47
2023-05-19T22:28:56.350Z,93270.63
2023-05-19T22:32:00.159Z,93269.13
2023-05-19T22:35:04.309Z,93268.34
2023-05-19T22:38:10.271Z,93267.22
2023-05-19T22:41:14.700Z,93283.31
2023-05-19T22:44:20.098Z,93281.69
2023-05-19T22:47:24.659Z,93287.09
2023-05-19T22:50:28.355Z,93282.00
2023-05-19T22:53:32.392Z,93295.41
2023-05-19T22:56:35.948Z,93296.56
2023-05-19T22:59:39.659Z,93299.16
2023-05-19T23:02:43.372Z,93303.78
2023-05-19T23:05:47.384Z,93315.75
2023-05-19T23:09:00.061Z,93313.63
2023-05-19T23:12:04.144Z,93314.81
2023-05-19T23:15:10.106Z,93311.97
2023-05-19T23:18:15.980Z,93300.84
2023-05-19T23:21:20.006Z,93310.44
2023-05-19T23:24:24.020Z,93310.91
2023-05-19T23:27:27.632Z,93306.03
2023-05-19T23:30:32.292Z,93311.13
2023-05-19T23:33:36.054Z,93308.63
2023-05-19T23:36:39.649Z,93303.34
2023-05-19T23:39:43.703Z,93303.59
2023-05-19T23:42:47.733Z,93308.59
2023-05-19T23:45:51.511Z,93314.75
2023-05-19T23:48:55.207Z,93317.53
2023-05-19T23:51:58.895Z,93307.00
2023-05-19T23:55:04.444Z,93311.94
2023-05-19T23:58:08.157Z,93315.28
